createdAt,value
2022-08-27T00:02:08.378Z,20.34
2022-08-27T00:04:36.798Z,20.28
2022-08-27T00:07:06.036Z,20.26
2022-08-27T00:09:34.659Z,20.21
2022-08-27T00:12:04.208Z,20.18
2022-08-27T00:14:31.813Z,20.19
2022-08-27T00:16:59.297Z,20.15
2022-08-27T00:19:28.549Z,20.10
2022-08-27T00:21:56.206Z,20.08
2022-08-27T00:24:23.669Z,20.03
2022-08-27T00:26:53.361Z,19.97
2022-08-27T00:29:21.046Z,19.93
2022-08-27T00:31:53.223Z,19.88
2022-08-27T00:34:23.994Z,19.84
2022-08-27T00:36:53.248Z,19.84
2022-08-27T00:39:20.976Z,19.79
2022-08-27T00:41:48.592Z,19.76
2022-08-27T00:44:16.252Z,19.72
2022-08-27T00:46:49.412Z,19.67
2022-08-27T00:50:01.328Z,19.60
2022-08-27T00:52:37.058Z,19.54
2022-08-27T00:55:18.631Z,19.49
2022-08-27T00:57:55.164Z,19.45
2022-08-27T01:00:22.677Z,19.38
2022-08-27T01:02:50.516Z,19.31
2022-08-27T01:05:25.377Z,19.28
2022-08-27T01:07:59.371Z,19.25
2022-08-27T01:10:29.491Z,19.24
2022-08-27T01:12:57.673Z,19.21
2022-08-27T01:15:28.526Z,19.18
2022-08-27T01:17:57.977Z,19.16
2022-08-27T01:20:35.565Z,19.10
2022-08-27T01:23:54.907Z,19.01
2022-08-27T01:26:25.066Z,18.99
2022-08-27T01:28:53.147Z,18.94
2022-08-27T01:31:21.309Z,18.94
2022-08-27T01:34:01.808Z,18.90
2022-08-27T01:36:30.333Z,18.91
2022-08-27T01:38:58.033Z,18.87
2022-08-27T01:41:26.269Z,18.82
2022-08-27T01:43:54.098Z,18.79
2022-08-27T01:46:27.122Z,18.73
2022-08-27T01:48:55.371Z,18.71
2022-08-27T01:51:23.050Z,18.68
2022-08-27T01:53:51.113Z,18.65
2022-08-27T01:56:18.366Z,18.61
2022-08-27T01:58:45.973Z,18.58
2022-08-27T02:01:16.885Z,18.55
2022-08-27T02:03:44.763Z,18.52
2022-08-27T02:06:12.734Z,18.47
2022-08-27T02:08:40.828Z,18.41
2022-08-27T02:11:08.740Z,18.38
2022-08-27T02:13:37.040Z,18.38
2022-08-27T02:16:05.285Z,18.36
2022-08-27T02:18:32.778Z,18.30
2022-08-27T02:21:00.368Z,18.27
2022-08-27T02:23:27.458Z,18.26
2022-08-27T02:25:54.649Z,18.21
2022-08-27T02:28:22.353Z,18.17
2022-08-27T02:30:49.421Z,18.14
2022-08-27T02:33:16.838Z,18.10
2022-08-27T02:35:44.393Z,18.09
2022-08-27T02:38:13.485Z,18.04
2022-08-27T02:40:41.276Z,18.04
2022-08-27T02:43:09.320Z,18.00
2022-08-27T02:45:37.770Z,17.98
2022-08-27T02:48:06.181Z,17.92
2022-08-27T02:50:35.265Z,17.91
2022-08-27T02:53:04.900Z,17.88
2022-08-27T02:55:33.406Z,17.84
2022-08-27T02:58:01.786Z,17.83
2022-08-27T03:00:29.876Z,17.81
2022-08-27T03:02:57.988Z,17.77
2022-08-27T03:05:26.602Z,17.75
2022-08-27T03:07:53.769Z,17.68
2022-08-27T03:10:22.473Z,17.62
2022-08-27T03:12:50.389Z,17.58
2022-08-27T03:15:19.892Z,17.52
2022-08-27T03:18:07.084Z,17.48
2022-08-27T03:20:41.295Z,17.49
2022-08-27T03:23:10.393Z,17.51
2022-08-27T03:25:38.821Z,17.47
2022-08-27T03:28:06.397Z,17.44
2022-08-27T03:30:54.704Z,17.39
2022-08-27T03:33:22.334Z,17.35
2022-08-27T03:35:52.034Z,17.35
2022-08-27T03:38:20.714Z,17.31
2022-08-27T03:40:48.840Z,17.29
2022-08-27T03:43:18.879Z,17.24
2022-08-27T03:46:00.332Z,17.19
2022-08-27T03:48:32.273Z,17.19
2022-08-27T03:51:07.908Z,17.18
2022-08-27T03:53:37.648Z,17.16
2022-08-27T03:56:06.336Z,17.11
2022-08-27T03:58:35.878Z,17.07
2022-08-27T04:01:05.641Z,17.06
2022-08-27T04:03:35.266Z,17.04
2022-08-27T04:06:03.531Z,17.05
2022-08-27T04:08:31.161Z,17.00
2022-08-27T04:10:58.212Z,17.00
2022-08-27T04:13:25.725Z,16.99
2022-08-27T04:15:55.421Z,16.98
2022-08-27T04:18:22.757Z,16.96
2022-08-27T04:20:52.674Z,16.96
2022-08-27T04:23:20.786Z,17.00
2022-08-27T04:25:47.945Z,17.00
2022-08-27T04:28:16.572Z,16.99
2022-08-27T04:30:46.698Z,17.03
2022-08-27T04:33:14.844Z,17.06
2022-08-27T04:35:43.197Z,17.11
2022-08-27T04:38:10.754Z,17.16
2022-08-27T04:40:58.186Z,17.22
2022-08-27T04:43:28.158Z,17.27
2022-08-27T04:45:55.478Z,17.33
2022-08-27T04:48:22.530Z,17.39
2022-08-27T04:50:50.361Z,17.45
2022-08-27T04:53:18.596Z,17.54
2022-08-27T04:55:53.429Z,17.63
2022-08-27T04:58:23.612Z,17.69
2022-08-27T05:01:00.092Z,17.74
2022-08-27T05:03:31.609Z,17.82
2022-08-27T05:06:05.731Z,17.94
2022-08-27T05:08:34.617Z,18.04
2022-08-27T05:11:02.449Z,18.13
2022-08-27T05:13:30.081Z,18.24
2022-08-27T05:16:06.001Z,18.41
2022-08-27T05:18:41.713Z,18.54
2022-08-27T05:21:32.006Z,18.71
2022-08-27T05:24:04.606Z,18.85
2022-08-27T05:26:34.989Z,18.99
2022-08-27T05:29:06.550Z,19.14
2022-08-27T05:31:34.706Z,19.34
2022-08-27T05:34:10.719Z,19.52
2022-08-27T05:36:48.029Z,19.71
2022-08-27T05:39:17.527Z,19.92
2022-08-27T05:41:45.295Z,20.11
2022-08-27T05:44:46.289Z,20.30
2022-08-27T05:47:00.146Z,20.47
2022-08-27T05:49:27.217Z,20.63
2022-08-27T05:51:54.464Z,20.80
2022-08-27T05:54:22.156Z,20.98
2022-08-27T05:56:50.509Z,21.27
2022-08-27T05:59:37.493Z,21.39
2022-08-27T06:02:06.987Z,21.60
2022-08-27T06:04:34.682Z,21.83
2022-08-27T06:07:04.340Z,21.91
2022-08-27T06:09:33.470Z,21.94
2022-08-27T06:12:02.406Z,21.94
2022-08-27T06:14:30.329Z,22.06
2022-08-27T06:17:02.604Z,22.33
2022-08-27T06:19:30.346Z,22.63
2022-08-27T06:22:00.129Z,22.95
2022-08-27T06:24:30.029Z,23.25
2022-08-27T06:26:57.489Z,23.46
2022-08-27T06:29:25.081Z,23.62
2022-08-27T06:31:55.039Z,23.75
2022-08-27T06:34:22.346Z,23.92
2022-08-27T06:36:50.043Z,24.04
2022-08-27T06:39:17.713Z,24.21
2022-08-27T06:41:46.054Z,24.40
2022-08-27T06:44:14.286Z,24.59
2022-08-27T06:46:43.488Z,24.83
2022-08-27T06:49:12.829Z,24.94
2022-08-27T06:51:45.538Z,24.99
2022-08-27T06:54:15.375Z,25.17
2022-08-27T06:56:44.419Z,25.33
2022-08-27T06:59:16.373Z,25.55
2022-08-27T07:01:51.380Z,25.62
2022-08-27T07:04:27.843Z,25.72
2022-08-27T07:07:04.711Z,25.80
2022-08-27T07:09:33.916Z,25.88
2022-08-27T07:12:01.609Z,26.09
2022-08-27T07:14:34.273Z,26.34
2022-08-27T07:17:06.184Z,26.55
2022-08-27T07:19:41.090Z,26.54
2022-08-27T07:22:09.617Z,26.89
2022-08-27T07:24:38.147Z,27.21
2022-08-27T07:27:06.840Z,27.44
2022-08-27T07:29:34.708Z,27.29
2022-08-27T07:32:02.168Z,27.43
2022-08-27T07:34:29.516Z,27.58
2022-08-27T07:36:56.947Z,27.75
2022-08-27T07:39:24.041Z,28.08
2022-08-27T07:42:10.124Z,28.25
2022-08-27T07:44:37.985Z,28.45
2022-08-27T07:47:05.209Z,28.54
2022-08-27T07:49:34.977Z,28.65
2022-08-27T07:52:03.877Z,28.71
2022-08-27T07:54:31.196Z,28.72
2022-08-27T07:56:59.382Z,28.82
2022-08-27T07:59:27.618Z,29.00
2022-08-27T08:01:56.948Z,29.23
2022-08-27T08:04:24.911Z,29.10
2022-08-27T08:06:53.623Z,29.05
2022-08-27T08:09:23.816Z,29.26
2022-08-27T08:11:54.439Z,29.56
2022-08-27T08:14:22.299Z,29.48
2022-08-27T08:16:49.750Z,29.74
2022-08-27T08:19:17.493Z,30.06
2022-08-27T08:21:45.080Z,30.00
2022-08-27T08:24:12.133Z,30.00
2022-08-27T08:26:41.710Z,30.22
2022-08-27T08:29:09.279Z,30.59
2022-08-27T08:31:42.608Z,30.87
2022-08-27T08:34:10.669Z,31.15
2022-08-27T08:36:42.429Z,31.30
2022-08-27T08:39:13.457Z,31.41
2022-08-27T08:41:54.221Z,31.65
2022-08-27T08:44:41.386Z,31.89
2022-08-27T08:47:26.621Z,32.10
2022-08-27T08:50:19.583Z,32.20
2022-08-27T08:53:07.197Z,32.36
2022-08-27T08:56:01.918Z,32.56
2022-08-27T08:58:55.872Z,32.69
2022-08-27T09:01:24.741Z,32.86
2022-08-27T09:04:00.529Z,33.08
2022-08-27T09:06:45.313Z,33.24
2022-08-27T09:09:23.921Z,33.41
2022-08-27T09:12:11.827Z,33.61
2022-08-27T09:15:02.568Z,33.75
2022-08-27T09:17:33.519Z,33.89
2022-08-27T09:20:00.965Z,34.07
2022-08-27T09:23:06.677Z,34.24
2022-08-27T09:25:40.952Z,34.43
2022-08-27T09:28:43.070Z,34.50
2022-08-27T09:31:16.953Z,34.56
2022-08-27T09:33:56.431Z,34.68
2022-08-27T09:36:25.412Z,34.61
2022-08-27T09:39:04.344Z,34.64
2022-08-27T09:41:43.488Z,34.69
2022-08-27T09:44:14.388Z,34.66
2022-08-27T09:46:58.638Z,34.75
2022-08-27T09:49:27.032Z,34.94
2022-08-27T09:51:56.438Z,34.98
2022-08-27T09:54:46.562Z,35.14
2022-08-27T09:57:31.382Z,35.29
2022-08-27T09:59:58.881Z,35.24
2022-08-27T10:02:27.427Z,35.26
2022-08-27T10:05:02.981Z,35.19
2022-08-27T10:07:53.848Z,35.31
2022-08-27T10:10:37.113Z,35.38
2022-08-27T10:13:57.435Z,35.55
2022-08-27T10:17:02.683Z,35.66
2022-08-27T10:19:47.644Z,35.62
2022-08-27T10:22:32.534Z,35.85
2022-08-27T10:25:32.009Z,35.67
2022-08-27T10:28:17.736Z,35.66
2022-08-27T10:31:34.408Z,35.84
2022-08-27T10:34:32.204Z,35.86
2022-08-27T10:37:52.199Z,35.94
2022-08-27T10:40:39.149Z,36.09
2022-08-27T10:43:32.786Z,35.99
2022-08-27T10:46:52.157Z,35.98
2022-08-27T10:49:44.833Z,36.10
2022-08-27T10:52:29.120Z,36.15
2022-08-27T10:55:03.257Z,36.18
2022-08-27T10:58:08.359Z,36.45
2022-08-27T11:01:12.458Z,36.41
2022-08-27T11:04:17.461Z,36.15
2022-08-27T11:07:08.170Z,36.17
2022-08-27T11:09:57.258Z,36.18
2022-08-27T11:12:46.737Z,36.56
2022-08-27T11:15:25.643Z,36.46
2022-08-27T11:18:11.788Z,36.65
2022-08-27T11:21:13.243Z,36.63
2022-08-27T11:23:57.317Z,36.61
2022-08-27T11:26:24.985Z,36.39
2022-08-27T11:29:00.336Z,36.36
2022-08-27T11:32:12.207Z,36.42
2022-08-27T11:35:06.581Z,36.57
2022-08-27T11:38:06.850Z,36.73
2022-08-27T11:40:34.556Z,36.88
2022-08-27T11:43:09.134Z,37.00
2022-08-27T11:46:05.080Z,37.12
2022-08-27T11:48:54.952Z,37.28
2022-08-27T11:51:40.388Z,37.50
2022-08-27T11:54:22.241Z,37.59
2022-08-27T11:56:50.258Z,37.68
2022-08-27T11:59:26.634Z,37.77
2022-08-27T12:01:59.711Z,37.91
2022-08-27T12:04:41.946Z,38.04
2022-08-27T12:07:18.397Z,38.14
2022-08-27T12:10:00.485Z,38.27
2022-08-27T12:13:08.602Z,38.36
2022-08-27T12:16:12.593Z,38.48
2022-08-27T12:18:57.086Z,38.67
2022-08-27T12:21:39.069Z,38.79
2022-08-27T12:24:55.708Z,38.95
2022-08-27T12:27:28.355Z,38.89
2022-08-27T12:30:02.676Z,38.98
2022-08-27T12:32:35.974Z,39.19
2022-08-27T12:35:20.244Z,39.14
2022-08-27T12:38:10.061Z,39.18
2022-08-27T12:41:00.175Z,39.23
2022-08-27T12:43:33.639Z,39.23
2022-08-27T12:46:08.532Z,39.38
2022-08-27T12:48:56.916Z,39.19
2022-08-27T12:51:37.533Z,39.10
2022-08-27T12:54:35.846Z,39.17
2022-08-27T12:57:20.342Z,39.13
2022-08-27T13:00:19.752Z,39.29
2022-08-27T13:03:29.237Z,39.51
2022-08-27T13:05:57.817Z,39.56
2022-08-27T13:08:36.877Z,39.62
2022-08-27T13:11:24.443Z,39.67
2022-08-27T13:14:03.493Z,39.69
2022-08-27T13:16:31.959Z,39.68
2022-08-27T13:19:00.177Z,39.67
2022-08-27T13:21:32.776Z,39.74
2022-08-27T13:24:05.492Z,39.65
2022-08-27T13:26:37.453Z,39.59
2022-08-27T13:29:09.147Z,39.65
2022-08-27T13:31:38.471Z,39.73
2022-08-27T13:34:07.020Z,39.84
2022-08-27T13:36:58.025Z,39.98
2022-08-27T13:39:27.717Z,40.01
2022-08-27T13:41:59.389Z,40.05
2022-08-27T13:44:40.866Z,40.01
2022-08-27T13:47:24.921Z,39.96
2022-08-27T13:50:07.705Z,39.90
2022-08-27T13:53:02.450Z,39.83
2022-08-27T13:55:31.009Z,39.90
2022-08-27T13:58:20.000Z,39.82
2022-08-27T14:00:47.644Z,39.54
2022-08-27T14:03:45.049Z,39.29
2022-08-27T14:06:40.509Z,39.06
2022-08-27T14:09:26.530Z,38.85
2022-08-27T14:12:08.251Z,38.76
2022-08-27T14:14:41.730Z,38.67
2022-08-27T14:17:29.721Z,38.60
2022-08-27T14:20:02.297Z,38.62
2022-08-27T14:22:34.280Z,38.78
2022-08-27T14:25:02.586Z,38.87
2022-08-27T14:27:29.858Z,38.94
2022-08-27T14:29:58.250Z,39.05
2022-08-27T14:32:25.348Z,39.10
2022-08-27T14:34:53.413Z,39.22
2022-08-27T14:37:20.866Z,39.13
2022-08-27T14:39:48.366Z,39.07
2022-08-27T14:42:17.564Z,39.04
2022-08-27T14:44:45.355Z,39.06
2022-08-27T14:47:16.026Z,39.07
2022-08-27T14:49:47.133Z,38.96
2022-08-27T14:52:15.431Z,38.78
2022-08-27T14:54:44.893Z,38.60
2022-08-27T14:57:12.555Z,38.43
2022-08-27T14:59:40.532Z,38.28
2022-08-27T15:02:14.013Z,38.19
2022-08-27T15:04:42.355Z,38.05
2022-08-27T15:07:14.504Z,37.94
2022-08-27T15:09:41.892Z,37.79
2022-08-27T15:12:15.069Z,37.64
2022-08-27T15:14:54.316Z,37.46
2022-08-27T15:17:35.510Z,37.30
2022-08-27T15:20:16.959Z,37.16
2022-08-27T15:22:52.133Z,37.00
2022-08-27T15:25:20.960Z,36.85
2022-08-27T15:27:49.746Z,36.67
2022-08-27T15:30:24.351Z,36.50
2022-08-27T15:32:52.224Z,36.32
2022-08-27T15:35:26.508Z,36.19
2022-08-27T15:37:57.197Z,36.02
2022-08-27T15:40:28.504Z,35.90
2022-08-27T15:43:02.313Z,35.77
2022-08-27T15:45:32.337Z,35.65
2022-08-27T15:48:01.358Z,35.55
2022-08-27T15:50:31.084Z,35.44
2022-08-27T15:53:04.844Z,35.27
2022-08-27T15:55:37.465Z,34.91
2022-08-27T15:58:06.112Z,34.74
2022-08-27T16:00:35.988Z,34.62
2022-08-27T16:03:09.263Z,34.54
2022-08-27T16:05:40.566Z,34.42
2022-08-27T16:08:09.094Z,34.37
2022-08-27T16:10:36.750Z,34.30
2022-08-27T16:13:04.923Z,34.22
2022-08-27T16:15:37.518Z,34.11
2022-08-27T16:18:04.910Z,33.99
2022-08-27T16:20:32.134Z,33.88
2022-08-27T16:23:00.610Z,33.77
2022-08-27T16:25:28.854Z,33.66
2022-08-27T16:27:57.923Z,33.55
2022-08-27T16:30:26.876Z,33.44
2022-08-27T16:32:55.059Z,33.35
2022-08-27T16:35:23.693Z,33.26
2022-08-27T16:37:52.249Z,33.18
2022-08-27T16:40:19.592Z,33.09
2022-08-27T16:42:50.731Z,33.00
2022-08-27T16:45:26.250Z,32.90
2022-08-27T16:48:12.580Z,32.81
2022-08-27T16:50:42.076Z,32.72
2022-08-27T16:53:15.505Z,32.64
2022-08-27T16:55:45.424Z,32.55
2022-08-27T16:58:22.530Z,32.44
2022-08-27T17:00:54.048Z,32.35
2022-08-27T17:03:24.006Z,32.25
2022-08-27T17:05:51.761Z,32.17
2022-08-27T17:08:26.092Z,32.10
2022-08-27T17:10:56.599Z,32.01
2022-08-27T17:13:29.710Z,31.94
2022-08-27T17:15:57.460Z,31.83
2022-08-27T17:18:27.723Z,31.74
2022-08-27T17:20:59.131Z,31.63
2022-08-27T17:23:41.102Z,31.54
2022-08-27T17:26:11.332Z,31.43
2022-08-27T17:28:40.777Z,31.34
2022-08-27T17:31:11.981Z,31.23
2022-08-27T17:33:45.193Z,31.14
2022-08-27T17:36:15.191Z,31.03
2022-08-27T17:38:43.468Z,30.93
2022-08-27T17:41:22.011Z,30.83
2022-08-27T17:43:50.127Z,30.74
2022-08-27T17:46:17.900Z,30.65
2022-08-27T17:48:45.674Z,30.54
2022-08-27T17:51:13.638Z,30.46
2022-08-27T17:53:48.596Z,30.36
2022-08-27T17:56:19.190Z,30.27
2022-08-27T17:58:48.606Z,30.19
2022-08-27T18:01:28.330Z,30.11
2022-08-27T18:03:57.848Z,30.04
2022-08-27T18:06:27.628Z,29.93
2022-08-27T18:08:54.902Z,29.84
2022-08-27T18:11:22.671Z,29.76
2022-08-27T18:13:55.174Z,29.70
2022-08-27T18:16:23.000Z,29.62
2022-08-27T18:18:51.091Z,29.57
2022-08-27T18:21:25.616Z,29.51
2022-08-27T18:23:54.434Z,29.47
2022-08-27T18:26:27.516Z,29.42
2022-08-27T18:28:57.458Z,29.37
2022-08-27T18:31:31.484Z,29.31
2022-08-27T18:34:01.139Z,29.24
2022-08-27T18:36:29.630Z,29.19
2022-08-27T18:38:57.086Z,29.11
2022-08-27T18:41:29.213Z,29.06
2022-08-27T18:43:56.973Z,29.01
2022-08-27T18:46:24.526Z,28.91
2022-08-27T18:48:52.164Z,28.78
2022-08-27T18:51:20.209Z,28.72
2022-08-27T18:53:48.774Z,28.67
2022-08-27T18:56:19.437Z,28.56
2022-08-27T18:58:48.293Z,28.45
2022-08-27T19:01:25.352Z,28.33
2022-08-27T19:03:56.584Z,28.21
2022-08-27T19:06:24.037Z,28.18
2022-08-27T19:08:52.370Z,28.12
2022-08-27T19:11:20.204Z,28.05
2022-08-27T19:13:50.667Z,27.84
2022-08-27T19:16:43.943Z,27.51
2022-08-27T19:19:15.433Z,27.30
2022-08-27T19:21:43.843Z,27.29
2022-08-27T19:24:12.965Z,27.30
2022-08-27T19:26:41.486Z,27.20
2022-08-27T19:29:10.102Z,27.10
2022-08-27T19:31:38.470Z,27.19
2022-08-27T19:34:08.637Z,27.20
2022-08-27T19:36:41.825Z,27.17
2022-08-27T19:39:13.062Z,27.10
2022-08-27T19:41:40.289Z,26.90
2022-08-27T19:44:08.472Z,26.76
2022-08-27T19:46:36.746Z,26.69
2022-08-27T19:49:04.211Z,26.72
2022-08-27T19:51:31.480Z,26.74
2022-08-27T19:53:59.182Z,26.71
2022-08-27T19:56:28.725Z,26.69
2022-08-27T19:58:59.842Z,26.62
2022-08-27T20:01:31.097Z,26.56
2022-08-27T20:03:59.076Z,26.48
2022-08-27T20:06:28.457Z,26.40
2022-08-27T20:08:57.233Z,26.39
2022-08-27T20:11:24.501Z,26.35
2022-08-27T20:13:51.582Z,26.31
2022-08-27T20:16:19.827Z,26.25
2022-08-27T20:18:47.029Z,26.20
2022-08-27T20:21:14.106Z,26.12
2022-08-27T20:23:41.749Z,26.10
2022-08-27T20:26:09.318Z,25.97
2022-08-27T20:28:39.792Z,25.77
2022-08-27T20:31:08.392Z,25.65
2022-08-27T20:33:35.472Z,25.54
2022-08-27T20:36:03.713Z,25.54
2022-08-27T20:38:31.377Z,25.42
2022-08-27T20:40:58.429Z,25.44
2022-08-27T20:43:25.467Z,25.32
2022-08-27T20:45:53.154Z,25.25
2022-08-27T20:48:20.771Z,25.00
2022-08-27T20:50:47.978Z,23.66
2022-08-27T20:53:15.609Z,23.28
2022-08-27T20:55:42.922Z,23.13
2022-08-27T20:58:28.361Z,23.02
2022-08-27T21:00:57.248Z,22.78
2022-08-27T21:03:24.610Z,23.20
2022-08-27T21:05:52.463Z,23.08
2022-08-27T21:08:21.793Z,23.33
2022-08-27T21:10:53.955Z,23.46
2022-08-27T21:13:22.754Z,23.59
2022-08-27T21:15:54.543Z,23.58
2022-08-27T21:18:29.560Z,23.88
2022-08-27T21:20:59.854Z,23.99
2022-08-27T21:23:29.158Z,24.09
2022-08-27T21:26:07.302Z,24.09
2022-08-27T21:28:34.942Z,24.08
2022-08-27T21:31:02.148Z,24.10
2022-08-27T21:33:29.383Z,24.08
2022-08-27T21:35:56.991Z,24.10
2022-08-27T21:38:23.988Z,24.06
2022-08-27T21:40:51.386Z,24.03
2022-08-27T21:43:18.993Z,23.98
2022-08-27T21:45:46.260Z,23.96
2022-08-27T21:48:14.011Z,23.95
2022-08-27T21:50:41.763Z,23.91
2022-08-27T21:53:09.073Z,23.88
2022-08-27T21:55:36.331Z,23.86
2022-08-27T21:58:04.653Z,23.84
2022-08-27T22:04:05.403Z,23.80
2022-08-27T22:06:32.793Z,23.77
2022-08-27T22:09:00.604Z,23.72
2022-08-27T22:11:30.669Z,23.68
2022-08-27T22:13:58.483Z,23.66
2022-08-27T22:16:25.573Z,23.64
2022-08-27T22:18:54.658Z,23.62
2022-08-27T22:21:24.369Z,23.58
2022-08-27T22:23:52.430Z,23.57
2022-08-27T22:26:21.665Z,23.55
2022-08-27T22:28:48.905Z,23.54
2022-08-27T22:31:16.401Z,23.50
2022-08-27T22:33:43.918Z,23.48
2022-08-27T22:36:11.077Z,23.45
2022-08-27T22:38:38.289Z,23.42
2022-08-27T22:41:06.382Z,23.38
2022-08-27T22:43:36.335Z,23.35
2022-08-27T22:46:03.474Z,23.27
2022-08-27T22:48:31.247Z,23.17
2022-08-27T22:50:58.362Z,23.20
2022-08-27T22:53:25.615Z,23.22
2022-08-27T22:55:53.283Z,23.20
2022-08-27T22:58:24.424Z,23.21
2022-08-27T23:00:53.102Z,23.20
2022-08-27T23:03:21.070Z,23.15
2022-08-27T23:05:48.421Z,23.12
2022-08-27T23:08:16.074Z,23.11
2022-08-27T23:10:44.126Z,23.09
2022-08-27T23:13:13.375Z,23.05
2022-08-27T23:15:42.173Z,23.05
2022-08-27T23:18:10.415Z,23.03
2022-08-27T23:20:37.771Z,22.99
2022-08-27T23:23:07.802Z,22.97
2022-08-27T23:25:54.651Z,22.96
2022-08-27T23:28:23.386Z,22.92
2022-08-27T23:30:51.102Z,22.90
2022-08-27T23:33:20.187Z,22.85
2022-08-27T23:35:51.262Z,22.85
2022-08-27T23:38:21.785Z,22.82
2022-08-27T23:40:50.349Z,22.80
2022-08-27T23:43:18.526Z,22.78
2022-08-27T23:45:46.466Z,22.75
2022-08-27T23:48:13.667Z,22.74
2022-08-27T23:50:42.190Z,22.72
2022-08-27T23:53:10.499Z,22.69
2022-08-27T23:55:40.287Z,22.68
2022-08-27T23:58:09.351Z,22.65
